QXE2408 PANC-PAFA
Flight info
| Callsign | QXE2408 |
|---|---|
| Flight time | 0h 53m |
| Altitude | 22000 |
| Route | GLOWS |
| Aircraft | DH8D/M-SDE2E3FGRY/H |
Departure
| Time | 2026-05-04 22:11 |
|---|---|
| Airport | Ted Stevens Anchorage International Airport (PANC) |
Arrival
| Time | 2026-05-04 23:05 |
|---|---|
| Airport | Fairbanks International Airport (PAFA) |
| Time | Latitude | Longitude | Altitude | Speed | Heading |
|---|---|---|---|---|---|
| 2026-05-04 22:04 | 61.17255 | -149.97484 | 161 ft | 0 kts | 180° |
| 2026-05-04 22:05 | 61.17236 | -149.97485 | 161 ft | 9 kts | 183° |
| 2026-05-04 22:06 | 61.17179 | -149.97499 | 161 ft | 9 kts | 204° |
| 2026-05-04 22:06 | 61.17131 | -149.97568 | 161 ft | 9 kts | 230° |
| 2026-05-04 22:06 | 61.17119 | -149.97684 | 161 ft | 8 kts | 270° |
| 2026-05-04 22:06 | 61.17119 | -149.97804 | 161 ft | 8 kts | 270° |
| 2026-05-04 22:07 | 61.17119 | -149.97914 | 161 ft | 7 kts | 270° |
| 2026-05-04 22:07 | 61.17120 | -149.98007 | 161 ft | 7 kts | 270° |
| 2026-05-04 22:07 | 61.17120 | -149.98099 | 161 ft | 7 kts | 268° |
| 2026-05-04 22:07 | 61.17121 | -149.98253 | 161 ft | 15 kts | 270° |
| 2026-05-04 22:08 | 61.17121 | -149.98442 | 161 ft | 14 kts | 269° |
| 2026-05-04 22:08 | 61.17121 | -149.98613 | 161 ft | 12 kts | 270° |
| 2026-05-04 22:08 | 61.17121 | -149.98795 | 161 ft | 19 kts | 272° |
| 2026-05-04 22:08 | 61.17123 | -149.99098 | 161 ft | 27 kts | 268° |
| 2026-05-04 22:09 | 61.17117 | -149.99460 | 161 ft | 25 kts | 273° |
| 2026-05-04 22:09 | 61.17125 | -149.99757 | 161 ft | 21 kts | 272° |
| 2026-05-04 22:09 | 61.17126 | -150.00006 | 162 ft | 17 kts | 271° |
| 2026-05-04 22:09 | 61.17126 | -150.00214 | 161 ft | 14 kts | 270° |
| 2026-05-04 22:10 | 61.17126 | -150.00411 | 161 ft | 16 kts | 272° |
| 2026-05-04 22:10 | 61.17122 | -150.00629 | 161 ft | 17 kts | 262° |
| 2026-05-04 22:10 | 61.17075 | -150.00803 | 161 ft | 16 kts | 191° |
| 2026-05-04 22:10 | 61.16987 | -150.00751 | 161 ft | 18 kts | 123° |
| 2026-05-04 22:11 | 61.16976 | -150.00182 | 162 ft | 85 kts | 89° |
| 2026-05-04 22:11 | 61.16978 | -149.98715 | 163 ft | 147 kts | 86° |
| 2026-05-04 22:11 | 61.16959 | -149.96774 | 585 ft | 156 kts | 89° |
| 2026-05-04 22:11 | 61.16914 | -149.94840 | 1302 ft | 154 kts | 84° |
| 2026-05-04 22:12 | 61.17316 | -149.93265 | 2006 ft | 150 kts | 33° |
| 2026-05-04 22:12 | 61.18217 | -149.93129 | 2563 ft | 164 kts | 346° |
| 2026-05-04 22:12 | 61.19121 | -149.93977 | 3182 ft | 163 kts | 344° |
| 2026-05-04 22:12 | 61.20062 | -149.94592 | 3762 ft | 161 kts | 354° |
| 2026-05-04 22:13 | 61.21067 | -149.94968 | 4327 ft | 162 kts | 1° |
| 2026-05-04 22:13 | 61.22049 | -149.95145 | 4847 ft | 163 kts | 6° |
| 2026-05-04 22:13 | 61.23105 | -149.95167 | 5400 ft | 165 kts | 11° |
| 2026-05-04 22:13 | 61.24143 | -149.95059 | 5926 ft | 168 kts | 14° |
| 2026-05-04 22:14 | 61.25163 | -149.94856 | 6358 ft | 175 kts | 17° |
| 2026-05-04 22:14 | 61.26262 | -149.94545 | 6817 ft | 181 kts | 20° |
| 2026-05-04 22:14 | 61.27395 | -149.94156 | 7306 ft | 186 kts | 21° |
| 2026-05-04 22:14 | 61.28532 | -149.93727 | 7808 ft | 190 kts | 21° |
| 2026-05-04 22:15 | 61.29674 | -149.93268 | 8317 ft | 194 kts | 21° |
| 2026-05-04 22:15 | 61.30823 | -149.92783 | 8828 ft | 197 kts | 21° |
| 2026-05-04 22:15 | 61.31973 | -149.92282 | 9346 ft | 200 kts | 21° |
| 2026-05-04 22:15 | 61.33153 | -149.91754 | 9857 ft | 203 kts | 21° |
| 2026-05-04 22:16 | 61.34360 | -149.91203 | 10373 ft | 206 kts | 22° |
| 2026-05-04 22:16 | 61.35568 | -149.90643 | 10878 ft | 209 kts | 21° |
| 2026-05-04 22:16 | 61.36816 | -149.90062 | 11403 ft | 211 kts | 21° |
| 2026-05-04 22:16 | 61.38063 | -149.89478 | 11907 ft | 213 kts | 21° |
| 2026-05-04 22:17 | 61.39331 | -149.88879 | 12410 ft | 213 kts | 21° |
| 2026-05-04 22:17 | 61.40621 | -149.88268 | 12905 ft | 214 kts | 20° |
| 2026-05-04 22:17 | 61.41898 | -149.87657 | 13363 ft | 214 kts | 21° |
| 2026-05-04 22:17 | 61.43206 | -149.87030 | 13781 ft | 215 kts | 20° |
| 2026-05-04 22:18 | 61.44505 | -149.86408 | 14203 ft | 215 kts | 20° |
| 2026-05-04 22:18 | 61.45794 | -149.85786 | 14615 ft | 216 kts | 19° |
| 2026-05-04 22:18 | 61.47075 | -149.85169 | 15008 ft | 216 kts | 19° |
| 2026-05-04 22:18 | 61.48380 | -149.84538 | 15399 ft | 216 kts | 20° |
| 2026-05-04 22:19 | 61.49698 | -149.83899 | 15768 ft | 217 kts | 18° |
| 2026-05-04 22:19 | 61.50998 | -149.83270 | 16122 ft | 218 kts | 19° |
| 2026-05-04 22:19 | 61.52330 | -149.82622 | 16464 ft | 218 kts | 19° |
| 2026-05-04 22:19 | 61.53643 | -149.81988 | 16774 ft | 217 kts | 20° |
| 2026-05-04 22:20 | 61.54952 | -149.81349 | 17085 ft | 217 kts | 19° |
| 2026-05-04 22:20 | 61.56258 | -149.80711 | 17379 ft | 218 kts | 19° |
| 2026-05-04 22:20 | 61.57574 | -149.80066 | 17645 ft | 218 kts | 18° |
| 2026-05-04 22:20 | 61.58884 | -149.79427 | 17920 ft | 218 kts | 18° |
| 2026-05-04 22:21 | 61.60203 | -149.78780 | 18182 ft | 219 kts | 19° |
| 2026-05-04 22:21 | 61.61521 | -149.78133 | 18439 ft | 219 kts | 19° |
| 2026-05-04 22:21 | 61.62846 | -149.77484 | 18703 ft | 220 kts | 20° |
| 2026-05-04 22:21 | 61.64188 | -149.76825 | 18953 ft | 220 kts | 19° |
| 2026-05-04 22:22 | 61.65510 | -149.76176 | 19196 ft | 220 kts | 19° |
| 2026-05-04 22:22 | 61.66828 | -149.75528 | 19440 ft | 219 kts | 20° |
| 2026-05-04 22:22 | 61.68145 | -149.74881 | 19679 ft | 219 kts | 20° |
| 2026-05-04 22:22 | 61.69465 | -149.74231 | 19901 ft | 218 kts | 19° |
| 2026-05-04 22:23 | 61.70793 | -149.73575 | 20111 ft | 220 kts | 20° |
| 2026-05-04 22:23 | 61.72109 | -149.72923 | 20362 ft | 220 kts | 20° |
| 2026-05-04 22:23 | 61.73413 | -149.72276 | 20585 ft | 221 kts | 19° |
| 2026-05-04 22:23 | 61.74742 | -149.71620 | 20806 ft | 222 kts | 21° |
| 2026-05-04 22:24 | 61.76075 | -149.70958 | 21035 ft | 222 kts | 20° |
| 2026-05-04 22:24 | 61.77403 | -149.70303 | 21259 ft | 221 kts | 21° |
| 2026-05-04 22:24 | 61.78735 | -149.69641 | 21461 ft | 222 kts | 20° |
| 2026-05-04 22:24 | 61.80056 | -149.68986 | 21688 ft | 221 kts | 20° |
| 2026-05-04 22:25 | 61.81403 | -149.68312 | 21806 ft | 228 kts | 19° |
| 2026-05-04 22:25 | 61.82784 | -149.67621 | 21877 ft | 235 kts | 20° |
| 2026-05-04 22:25 | 61.84215 | -149.66907 | 21908 ft | 246 kts | 19° |
| 2026-05-04 22:25 | 61.85763 | -149.66135 | 21925 ft | 258 kts | 18° |
| 2026-05-04 22:26 | 61.87333 | -149.65350 | 21926 ft | 270 kts | 18° |
| 2026-05-04 22:26 | 61.89000 | -149.64517 | 21924 ft | 282 kts | 18° |
| 2026-05-04 22:26 | 61.90744 | -149.63641 | 21910 ft | 294 kts | 18° |
| 2026-05-04 22:26 | 61.92553 | -149.62736 | 21916 ft | 305 kts | 18° |
| 2026-05-04 22:27 | 61.94456 | -149.61792 | 21912 ft | 316 kts | 17° |
| 2026-05-04 22:27 | 61.96420 | -149.60805 | 21908 ft | 326 kts | 16° |
| 2026-05-04 22:27 | 61.98422 | -149.59801 | 21912 ft | 333 kts | 17° |
| 2026-05-04 22:27 | 62.00492 | -149.58760 | 21899 ft | 341 kts | 17° |
| 2026-05-04 22:28 | 62.02587 | -149.57693 | 21909 ft | 345 kts | 17° |
| 2026-05-04 22:28 | 62.04723 | -149.56621 | 21904 ft | 350 kts | 17° |
| 2026-05-04 22:28 | 62.06883 | -149.55525 | 21890 ft | 354 kts | 17° |
| 2026-05-04 22:28 | 62.09055 | -149.54427 | 21871 ft | 357 kts | 15° |
| 2026-05-04 22:29 | 62.11253 | -149.53317 | 21910 ft | 357 kts | 16° |
| 2026-05-04 22:29 | 62.13440 | -149.52203 | 21895 ft | 360 kts | 16° |
| 2026-05-04 22:29 | 62.15583 | -149.51111 | 21874 ft | 361 kts | 16° |
| 2026-05-04 22:29 | 62.17802 | -149.49982 | 21872 ft | 362 kts | 15° |
| 2026-05-04 22:30 | 62.19990 | -149.48866 | 21888 ft | 364 kts | 16° |
| 2026-05-04 22:30 | 62.22185 | -149.47743 | 21893 ft | 366 kts | 16° |
| 2026-05-04 22:30 | 62.24379 | -149.46620 | 21884 ft | 367 kts | 15° |
| 2026-05-04 22:30 | 62.26577 | -149.45496 | 21881 ft | 367 kts | 15° |
| 2026-05-04 22:31 | 62.28773 | -149.44368 | 21894 ft | 367 kts | 15° |
| 2026-05-04 22:31 | 62.30953 | -149.43248 | 21908 ft | 367 kts | 16° |
| 2026-05-04 22:31 | 62.33174 | -149.42105 | 21901 ft | 367 kts | 15° |
| 2026-05-04 22:31 | 62.35356 | -149.40981 | 21896 ft | 368 kts | 15° |
| 2026-05-04 22:32 | 62.37543 | -149.39851 | 21890 ft | 369 kts | 15° |
| 2026-05-04 22:32 | 62.39727 | -149.38722 | 21898 ft | 368 kts | 15° |
| 2026-05-04 22:32 | 62.41940 | -149.37576 | 21904 ft | 368 kts | 15° |
| 2026-05-04 22:32 | 62.44122 | -149.36444 | 21913 ft | 368 kts | 15° |
| 2026-05-04 22:33 | 62.46347 | -149.35288 | 21910 ft | 370 kts | 15° |
| 2026-05-04 22:33 | 62.48544 | -149.34145 | 21907 ft | 370 kts | 16° |
| 2026-05-04 22:33 | 62.50741 | -149.32999 | 21915 ft | 371 kts | 16° |
| 2026-05-04 22:33 | 62.52990 | -149.31824 | 21922 ft | 373 kts | 16° |
| 2026-05-04 22:34 | 62.55267 | -149.30640 | 21923 ft | 374 kts | 15° |
| 2026-05-04 22:34 | 62.57495 | -149.29483 | 21912 ft | 373 kts | 16° |
| 2026-05-04 22:34 | 62.59740 | -149.28314 | 21918 ft | 372 kts | 16° |
| 2026-05-04 22:34 | 62.62038 | -149.27113 | 21902 ft | 372 kts | 15° |
| 2026-05-04 22:35 | 62.64304 | -149.25925 | 21910 ft | 373 kts | 16° |
| 2026-05-04 22:35 | 62.66581 | -149.24730 | 21903 ft | 373 kts | 16° |
| 2026-05-04 22:35 | 62.68815 | -149.23553 | 21892 ft | 372 kts | 16° |
| 2026-05-04 22:35 | 62.71093 | -149.22354 | 21900 ft | 372 kts | 15° |
| 2026-05-04 22:36 | 62.73375 | -149.21150 | 21910 ft | 374 kts | 15° |
| 2026-05-04 22:36 | 62.75665 | -149.19942 | 21903 ft | 374 kts | 15° |
| 2026-05-04 22:36 | 62.77949 | -149.18730 | 21897 ft | 374 kts | 15° |
| 2026-05-04 22:36 | 62.80235 | -149.17516 | 21889 ft | 373 kts | 15° |
| 2026-05-04 22:37 | 62.82512 | -149.16304 | 21880 ft | 372 kts | 15° |
| 2026-05-04 22:37 | 62.84823 | -149.15063 | 21895 ft | 372 kts | 14° |
| 2026-05-04 22:37 | 62.87094 | -149.13852 | 21886 ft | 372 kts | 15° |
| 2026-05-04 22:37 | 62.89358 | -149.12639 | 21866 ft | 371 kts | 15° |
| 2026-05-04 22:38 | 62.91615 | -149.11432 | 21883 ft | 370 kts | 15° |
| 2026-05-04 22:38 | 62.93915 | -149.10193 | 21878 ft | 370 kts | 15° |
| 2026-05-04 22:38 | 62.96140 | -149.08995 | 21863 ft | 369 kts | 15° |
| 2026-05-04 22:38 | 62.98393 | -149.07787 | 21856 ft | 369 kts | 15° |
| 2026-05-04 22:39 | 63.00686 | -149.06551 | 21858 ft | 370 kts | 14° |
| 2026-05-04 22:39 | 63.02938 | -149.05331 | 21899 ft | 368 kts | 15° |
| 2026-05-04 22:39 | 63.05185 | -149.04118 | 21867 ft | 370 kts | 14° |
| 2026-05-04 22:39 | 63.07438 | -149.02895 | 21866 ft | 370 kts | 15° |
| 2026-05-04 22:40 | 63.09734 | -149.01651 | 21877 ft | 371 kts | 15° |
| 2026-05-04 22:40 | 63.11974 | -149.00429 | 21899 ft | 369 kts | 15° |
| 2026-05-04 22:40 | 63.14225 | -148.99205 | 21883 ft | 370 kts | 14° |
| 2026-05-04 22:40 | 63.16402 | -148.98013 | 21866 ft | 370 kts | 15° |
| 2026-05-04 22:41 | 63.18629 | -148.96797 | 21883 ft | 370 kts | 15° |
| 2026-05-04 22:41 | 63.20879 | -148.95570 | 21895 ft | 370 kts | 14° |
| 2026-05-04 22:41 | 63.23102 | -148.94353 | 21889 ft | 371 kts | 14° |
| 2026-05-04 22:41 | 63.25337 | -148.93132 | 21890 ft | 371 kts | 14° |
| 2026-05-04 22:42 | 63.27554 | -148.91916 | 21889 ft | 371 kts | 14° |
| 2026-05-04 22:42 | 63.29744 | -148.90712 | 21886 ft | 370 kts | 14° |
| 2026-05-04 22:42 | 63.31946 | -148.89499 | 21873 ft | 371 kts | 14° |
| 2026-05-04 22:42 | 63.34107 | -148.88306 | 21870 ft | 370 kts | 14° |
| 2026-05-04 22:43 | 63.36324 | -148.87080 | 21865 ft | 371 kts | 14° |
| 2026-05-04 22:43 | 63.38486 | -148.85881 | 21866 ft | 371 kts | 14° |
| 2026-05-04 22:43 | 63.40679 | -148.84663 | 21865 ft | 372 kts | 14° |
| 2026-05-04 22:43 | 63.42880 | -148.83440 | 21866 ft | 371 kts | 14° |
| 2026-05-04 22:44 | 63.45076 | -148.82216 | 21869 ft | 371 kts | 14° |
| 2026-05-04 22:44 | 63.47278 | -148.80988 | 21876 ft | 372 kts | 14° |
| 2026-05-04 22:44 | 63.49441 | -148.79774 | 21869 ft | 372 kts | 14° |
| 2026-05-04 22:44 | 63.51659 | -148.78532 | 21870 ft | 374 kts | 14° |
| 2026-05-04 22:45 | 63.53869 | -148.77293 | 21871 ft | 373 kts | 14° |
| 2026-05-04 22:45 | 63.58261 | -148.74824 | 21878 ft | 371 kts | 14° |
| 2026-05-04 22:45 | 63.60466 | -148.73579 | 21873 ft | 371 kts | 14° |
| 2026-05-04 22:46 | 63.62664 | -148.72340 | 21863 ft | 370 kts | 13° |
| 2026-05-04 22:46 | 63.64820 | -148.71123 | 21889 ft | 370 kts | 13° |
| 2026-05-04 22:46 | 63.67002 | -148.69888 | 21897 ft | 370 kts | 13° |
| 2026-05-04 22:46 | 63.69193 | -148.68645 | 21890 ft | 371 kts | 13° |
| 2026-05-04 22:47 | 63.71406 | -148.67389 | 21903 ft | 370 kts | 13° |
| 2026-05-04 22:47 | 63.73592 | -148.66147 | 21906 ft | 370 kts | 13° |
| 2026-05-04 22:47 | 63.75814 | -148.64877 | 21502 ft | 378 kts | 13° |
| 2026-05-04 22:47 | 63.78012 | -148.63625 | 20602 ft | 380 kts | 13° |
| 2026-05-04 22:48 | 63.80241 | -148.62361 | 20009 ft | 371 kts | 12° |
| 2026-05-04 22:48 | 63.82383 | -148.61144 | 19537 ft | 360 kts | 13° |
| 2026-05-04 22:48 | 63.84492 | -148.59946 | 19123 ft | 348 kts | 12° |
| 2026-05-04 22:48 | 63.86489 | -148.58809 | 18742 ft | 336 kts | 13° |
| 2026-05-04 22:49 | 63.88416 | -148.57710 | 18374 ft | 324 kts | 12° |
| 2026-05-04 22:49 | 63.90306 | -148.56635 | 18026 ft | 313 kts | 12° |
| 2026-05-04 22:49 | 63.92133 | -148.55595 | 17695 ft | 305 kts | 12° |
| 2026-05-04 22:49 | 63.93926 | -148.54564 | 17372 ft | 309 kts | 12° |
| 2026-05-04 22:50 | 63.95766 | -148.53500 | 17020 ft | 313 kts | 13° |
| 2026-05-04 22:50 | 63.97632 | -148.52418 | 16652 ft | 317 kts | 13° |
| 2026-05-04 22:50 | 63.99504 | -148.51334 | 16291 ft | 320 kts | 12° |
| 2026-05-04 22:50 | 64.01431 | -148.50214 | 15922 ft | 324 kts | 12° |
| 2026-05-04 22:51 | 64.03368 | -148.49081 | 15558 ft | 331 kts | 13° |
| 2026-05-04 22:51 | 64.05348 | -148.47922 | 15186 ft | 336 kts | 13° |
| 2026-05-04 22:51 | 64.07375 | -148.46733 | 14821 ft | 340 kts | 13° |
| 2026-05-04 22:51 | 64.09453 | -148.45515 | 14416 ft | 344 kts | 13° |
| 2026-05-04 22:52 | 64.11506 | -148.44310 | 14016 ft | 345 kts | 13° |
| 2026-05-04 22:52 | 64.13599 | -148.43079 | 13644 ft | 344 kts | 13° |
| 2026-05-04 22:52 | 64.15641 | -148.41875 | 13252 ft | 345 kts | 13° |
| 2026-05-04 22:52 | 64.17681 | -148.40669 | 12859 ft | 343 kts | 13° |
| 2026-05-04 22:53 | 64.19752 | -148.39449 | 12476 ft | 345 kts | 13° |
| 2026-05-04 22:53 | 64.21787 | -148.38246 | 12114 ft | 344 kts | 13° |
| 2026-05-04 22:53 | 64.23843 | -148.37028 | 11715 ft | 343 kts | 13° |
| 2026-05-04 22:53 | 64.25903 | -148.35805 | 11322 ft | 341 kts | 14° |
| 2026-05-04 22:54 | 64.27949 | -148.34590 | 10953 ft | 341 kts | 14° |
| 2026-05-04 22:54 | 64.29946 | -148.33405 | 10554 ft | 330 kts | 15° |
| 2026-05-04 22:54 | 64.31877 | -148.32272 | 10175 ft | 315 kts | 14° |
| 2026-05-04 22:54 | 64.33720 | -148.31192 | 9813 ft | 300 kts | 15° |
| 2026-05-04 22:55 | 64.35509 | -148.30144 | 9495 ft | 289 kts | 15° |
| 2026-05-04 22:55 | 64.37210 | -148.29141 | 9172 ft | 279 kts | 15° |
| 2026-05-04 22:55 | 64.38850 | -148.28174 | 8854 ft | 269 kts | 15° |
| 2026-05-04 22:55 | 64.40450 | -148.27231 | 8556 ft | 261 kts | 16° |
| 2026-05-04 22:56 | 64.41981 | -148.26326 | 8264 ft | 254 kts | 16° |
| 2026-05-04 22:56 | 64.43473 | -148.25442 | 7985 ft | 248 kts | 16° |
| 2026-05-04 22:56 | 64.44946 | -148.24553 | 7695 ft | 241 kts | 17° |
| 2026-05-04 22:56 | 64.46367 | -148.23665 | 7425 ft | 240 kts | 17° |
| 2026-05-04 22:57 | 64.47787 | -148.22765 | 7186 ft | 241 kts | 17° |
| 2026-05-04 22:57 | 64.49239 | -148.21840 | 6910 ft | 242 kts | 18° |
| 2026-05-04 22:57 | 64.50672 | -148.20924 | 6637 ft | 243 kts | 18° |
| 2026-05-04 22:57 | 64.52129 | -148.19992 | 6366 ft | 244 kts | 18° |
| 2026-05-04 22:58 | 64.53587 | -148.19055 | 6090 ft | 244 kts | 18° |
| 2026-05-04 22:58 | 64.55042 | -148.18121 | 5802 ft | 242 kts | 18° |
| 2026-05-04 22:58 | 64.56477 | -148.17204 | 5523 ft | 236 kts | 18° |
| 2026-05-04 22:58 | 64.57863 | -148.16319 | 5264 ft | 229 kts | 18° |
| 2026-05-04 22:59 | 64.59212 | -148.15454 | 5011 ft | 227 kts | 18° |
| 2026-05-04 22:59 | 64.60571 | -148.14575 | 4758 ft | 224 kts | 18° |
| 2026-05-04 22:59 | 64.61914 | -148.13709 | 4508 ft | 222 kts | 18° |
| 2026-05-04 22:59 | 64.63249 | -148.12845 | 4258 ft | 221 kts | 19° |
| 2026-05-04 23:00 | 64.64548 | -148.12003 | 4010 ft | 219 kts | 19° |
| 2026-05-04 23:00 | 64.65839 | -148.11165 | 3775 ft | 216 kts | 18° |
| 2026-05-04 23:00 | 64.67136 | -148.10324 | 3532 ft | 214 kts | 19° |
| 2026-05-04 23:00 | 64.68417 | -148.09479 | 3280 ft | 212 kts | 21° |
| 2026-05-04 23:01 | 64.69534 | -148.08183 | 3044 ft | 206 kts | 38° |
| 2026-05-04 23:01 | 64.70522 | -148.06418 | 2810 ft | 203 kts | 41° |
| 2026-05-04 23:01 | 64.71487 | -148.04634 | 2574 ft | 199 kts | 41° |
| 2026-05-04 23:01 | 64.72412 | -148.02928 | 2357 ft | 185 kts | 40° |
| 2026-05-04 23:02 | 64.73259 | -148.01376 | 2161 ft | 170 kts | 40° |
| 2026-05-04 23:02 | 64.74036 | -147.99951 | 1959 ft | 160 kts | 40° |
| 2026-05-04 23:02 | 64.74799 | -147.98534 | 1776 ft | 163 kts | 40° |
| 2026-05-04 23:02 | 64.75578 | -147.97078 | 1610 ft | 166 kts | 40° |
| 2026-05-04 23:03 | 64.76360 | -147.95625 | 1509 ft | 158 kts | 40° |
| 2026-05-04 23:03 | 64.77068 | -147.94338 | 1389 ft | 138 kts | 39° |
| 2026-05-04 23:03 | 64.77710 | -147.93167 | 1182 ft | 133 kts | 40° |
| 2026-05-04 23:03 | 64.78313 | -147.92055 | 995 ft | 129 kts | 40° |
| 2026-05-04 23:04 | 64.78960 | -147.90857 | 841 ft | 133 kts | 39° |
| 2026-05-04 23:04 | 64.79607 | -147.89719 | 693 ft | 131 kts | 34° |
| 2026-05-04 23:04 | 64.80226 | -147.88657 | 524 ft | 123 kts | 37° |
| 2026-05-04 23:04 | 64.80795 | -147.87617 | 444 ft | 110 kts | 38° |
| 2026-05-04 23:05 | 64.81237 | -147.86800 | 444 ft | 60 kts | 38° |
| 2026-05-04 23:05 | 64.81501 | -147.86317 | 444 ft | 38 kts | 38° |
| 2026-05-04 23:05 | 64.81622 | -147.86174 | 444 ft | 16 kts | 332° |
| 2026-05-04 23:05 | 64.81630 | -147.86412 | 444 ft | 20 kts | 217° |
| 2026-05-04 23:06 | 64.81610 | -147.86545 | 444 ft | 9 kts | 309° |
| 2026-05-04 23:06 | 64.81664 | -147.86656 | 444 ft | 7 kts | 317° |
| 2026-05-04 23:06 | 64.81696 | -147.86684 | 444 ft | 5 kts | 347° |
| 2026-05-04 23:06 | 64.81702 | -147.86688 | 444 ft | 0 kts | 347° |